createdAt,value
2018-03-22T00:01:12.713Z,-2.64
2018-03-22T00:03:41.542Z,-2.64
2018-03-22T00:06:16.907Z,-2.65
2018-03-22T00:08:50.564Z,-2.67
2018-03-22T00:11:18.718Z,-2.71
2018-03-22T00:13:47.120Z,-2.71
2018-03-22T00:16:16.069Z,-2.73
2018-03-22T00:18:44.213Z,-2.73
2018-03-22T00:21:13.157Z,-2.72
2018-03-22T00:23:41.293Z,-2.72
2018-03-22T00:26:09.436Z,-2.74
2018-03-22T00:28:38.066Z,-2.73
2018-03-22T00:31:06.673Z,-2.77
2018-03-22T00:33:34.809Z,-2.79
2018-03-22T00:36:02.998Z,-2.87
2018-03-22T00:38:31.663Z,-2.92
2018-03-22T00:41:01.916Z,-3.01
2018-03-22T00:43:30.039Z,-3.04
2018-03-22T00:45:59.371Z,-3.07
2018-03-22T00:48:28.944Z,-3.08
2018-03-22T00:50:57.152Z,-3.12
2018-03-22T00:53:26.029Z,-3.18
2018-03-22T00:55:54.164Z,-3.38
2018-03-22T00:58:22.293Z,-3.30
2018-03-22T01:00:50.475Z,-3.33
2018-03-22T01:03:18.641Z,-3.35
2018-03-22T01:05:46.819Z,-3.37
2018-03-22T01:08:14.962Z,-3.38
2018-03-22T01:10:43.554Z,-3.43
2018-03-22T01:13:11.773Z,-3.48
2018-03-22T01:15:39.916Z,-3.50
2018-03-22T01:18:08.059Z,-3.57
2018-03-22T01:20:36.204Z,-3.66
2018-03-22T01:23:04.387Z,-3.68
2018-03-22T01:25:32.616Z,-3.72
2018-03-22T01:28:00.805Z,-3.75
2018-03-22T01:30:36.828Z,-3.76
2018-03-22T01:33:04.970Z,-3.78
2018-03-22T01:35:33.105Z,-3.80
2018-03-22T01:38:01.232Z,-3.83
2018-03-22T01:40:29.379Z,-3.83
2018-03-22T01:42:57.531Z,-3.85
2018-03-22T01:45:25.664Z,-3.89
2018-03-22T01:47:53.834Z,-3.95
2018-03-22T01:50:21.959Z,-3.97
2018-03-22T01:53:02.005Z,-3.95
2018-03-22T01:55:30.142Z,-3.96
2018-03-22T01:57:58.303Z,-3.95
2018-03-22T02:00:26.540Z,-3.97
2018-03-22T02:02:54.666Z,-3.96
2018-03-22T02:05:22.824Z,-3.96
2018-03-22T02:07:50.952Z,-3.94
2018-03-22T02:10:19.108Z,-3.96
2018-03-22T02:12:47.249Z,-3.97
2018-03-22T02:15:15.422Z,-3.97
2018-03-22T02:17:43.544Z,-3.99
2018-03-22T02:20:11.697Z,-4.00
2018-03-22T02:22:39.875Z,-4.00
2018-03-22T02:25:08.095Z,-4.00
2018-03-22T02:27:36.334Z,-3.99
2018-03-22T02:30:04.512Z,-4.00
2018-03-22T02:32:32.673Z,-4.00
2018-03-22T02:35:00.797Z,-4.02
2018-03-22T02:37:28.921Z,-4.07
2018-03-22T02:39:57.113Z,-4.11
2018-03-22T02:42:25.333Z,-4.09
2018-03-22T02:44:53.488Z,-4.09
2018-03-22T02:47:21.663Z,-4.12
2018-03-22T02:49:49.837Z,-4.06
2018-03-22T02:52:18.078Z,-4.07
2018-03-22T02:54:46.217Z,-4.12
2018-03-22T02:57:14.357Z,-4.13
2018-03-22T02:59:42.555Z,-4.15
2018-03-22T03:02:10.735Z,-4.16
2018-03-22T03:04:38.920Z,-4.18
2018-03-22T03:07:07.113Z,-4.19
2018-03-22T03:09:35.273Z,-4.19
2018-03-22T03:12:03.456Z,-4.22
2018-03-22T03:14:31.619Z,-4.27
2018-03-22T03:16:59.753Z,-4.33
2018-03-22T03:19:27.947Z,-4.36
2018-03-22T03:21:56.076Z,-4.39
2018-03-22T03:24:24.235Z,-4.42
2018-03-22T03:26:52.447Z,-4.43
2018-03-22T03:29:20.675Z,-4.43
2018-03-22T03:31:48.833Z,-4.46
2018-03-22T03:34:16.988Z,-4.48
2018-03-22T03:36:45.144Z,-4.52
2018-03-22T03:39:13.354Z,-4.55
2018-03-22T03:41:41.512Z,-4.59
2018-03-22T03:44:09.652Z,-4.59
2018-03-22T03:46:37.804Z,-4.60
2018-03-22T03:49:05.982Z,-4.60
2018-03-22T03:51:34.183Z,-4.62
2018-03-22T03:54:02.303Z,-4.61
2018-03-22T03:56:30.484Z,-4.61
2018-03-22T03:58:58.667Z,-4.61
2018-03-22T04:01:26.798Z,-4.59
2018-03-22T04:03:54.990Z,-4.54
2018-03-22T04:06:23.147Z,-4.52
2018-03-22T04:08:51.264Z,-4.48
2018-03-22T04:11:19.445Z,-4.47
2018-03-22T04:13:47.743Z,-4.45
2018-03-22T04:16:15.909Z,-4.43
2018-03-22T04:18:44.081Z,-4.40
2018-03-22T04:21:12.205Z,-4.36
2018-03-22T04:23:40.339Z,-4.35
2018-03-22T04:26:08.508Z,-4.35
2018-03-22T04:28:36.704Z,-4.35
2018-03-22T04:31:04.826Z,-4.34
2018-03-22T04:33:32.984Z,-4.35
2018-03-22T04:36:01.216Z,-4.36
2018-03-22T04:38:29.348Z,-4.37
2018-03-22T04:40:57.515Z,-4.38
2018-03-22T04:43:25.646Z,-4.36
2018-03-22T04:45:53.797Z,-4.36
2018-03-22T04:48:21.943Z,-4.35
2018-03-22T04:50:50.128Z,-4.33
2018-03-22T04:53:18.264Z,-4.31
2018-03-22T04:55:46.396Z,-4.30
2018-03-22T04:58:14.544Z,-4.33
2018-03-22T05:00:42.746Z,-4.35
2018-03-22T05:03:10.859Z,-4.35
2018-03-22T05:05:38.986Z,-4.33
2018-03-22T05:08:07.169Z,-4.30
2018-03-22T05:10:35.295Z,-4.30
2018-03-22T05:13:03.453Z,-4.29
2018-03-22T05:15:31.599Z,-4.26
2018-03-22T05:17:59.755Z,-4.25
2018-03-22T05:20:27.920Z,-4.22
2018-03-22T05:22:56.068Z,-4.19
2018-03-22T05:25:24.226Z,-4.16
2018-03-22T05:27:52.400Z,-4.13
2018-03-22T05:30:20.558Z,-4.05
2018-03-22T05:32:48.724Z,-4.02
2018-03-22T05:35:16.881Z,-3.94
2018-03-22T05:37:45.027Z,-3.84
2018-03-22T05:40:13.193Z,-3.72
2018-03-22T05:42:41.471Z,-3.61
2018-03-22T05:45:09.988Z,-3.50
2018-03-22T05:47:38.143Z,-3.40
2018-03-22T05:50:06.316Z,-3.30
2018-03-22T05:52:34.464Z,-3.20
2018-03-22T05:55:03.518Z,-3.17
2018-03-22T05:57:31.656Z,-3.09
2018-03-22T05:59:59.853Z,-3.00
2018-03-22T06:02:27.983Z,-2.91
2018-03-22T06:04:56.132Z,-2.78
2018-03-22T06:07:24.258Z,-2.67
2018-03-22T06:09:52.386Z,-2.53
2018-03-22T06:12:20.552Z,-2.39
2018-03-22T06:14:48.712Z,-2.27
2018-03-22T06:17:16.886Z,-2.15
2018-03-22T06:19:45.027Z,-2.01
2018-03-22T06:22:13.182Z,-1.89
2018-03-22T06:24:41.303Z,-1.75
2018-03-22T06:27:09.474Z,-1.64
2018-03-22T06:29:37.601Z,-1.51
2018-03-22T06:32:05.763Z,-1.45
2018-03-22T06:34:33.907Z,-1.37
2018-03-22T06:37:02.036Z,-1.28
2018-03-22T06:39:30.166Z,-1.20
2018-03-22T06:41:58.424Z,-1.13
2018-03-22T06:44:26.615Z,-1.04
2018-03-22T06:46:54.744Z,-0.90
2018-03-22T06:49:22.927Z,-0.76
2018-03-22T06:51:51.133Z,-0.64
2018-03-22T06:54:20.091Z,-0.49
2018-03-22T06:56:48.231Z,-0.43
2018-03-22T06:59:16.357Z,-0.29
2018-03-22T07:01:44.492Z,-0.19
2018-03-22T07:04:12.632Z,-0.11
2018-03-22T07:06:40.752Z,-0.01
2018-03-22T07:09:08.976Z,0.07
2018-03-22T07:11:37.102Z,0.16
2018-03-22T07:14:05.236Z,0.25
2018-03-22T07:16:33.655Z,0.29
2018-03-22T07:19:01.799Z,0.47
2018-03-22T07:21:29.937Z,0.62
2018-03-22T07:23:58.045Z,0.72
2018-03-22T07:26:26.165Z,0.75
2018-03-22T07:28:54.285Z,0.98
2018-03-22T07:31:22.404Z,0.96
2018-03-22T07:33:50.779Z,0.96
2018-03-22T07:36:18.912Z,0.91
2018-03-22T07:38:47.032Z,1.00
2018-03-22T07:41:15.161Z,1.07
2018-03-22T07:43:43.289Z,1.07
2018-03-22T07:46:11.407Z,1.09
2018-03-22T07:48:39.535Z,1.19
2018-03-22T07:51:07.651Z,1.24
2018-03-22T07:53:35.781Z,1.31
2018-03-22T07:56:03.899Z,1.30
2018-03-22T07:58:32.046Z,1.37
2018-03-22T08:01:00.167Z,1.38
2018-03-22T08:03:28.295Z,1.44
2018-03-22T08:05:56.482Z,1.53
2018-03-22T08:08:24.551Z,1.66
2018-03-22T08:10:52.702Z,1.81
2018-03-22T08:13:21.264Z,1.96
2018-03-22T08:15:49.409Z,2.04
2018-03-22T08:18:17.525Z,2.12
2018-03-22T08:20:45.656Z,2.33
2018-03-22T08:23:13.846Z,2.55
2018-03-22T08:25:41.973Z,2.69
2018-03-22T08:28:10.100Z,3.06
2018-03-22T08:30:38.224Z,3.17
2018-03-22T08:33:06.502Z,3.54
2018-03-22T08:35:34.648Z,3.69
2018-03-22T08:38:02.768Z,3.64
2018-03-22T08:40:30.919Z,3.57
2018-03-22T08:42:59.045Z,3.46
2018-03-22T08:45:27.163Z,3.29
2018-03-22T08:47:55.291Z,3.31
2018-03-22T08:50:23.435Z,3.44
2018-03-22T08:52:51.552Z,3.60
2018-03-22T08:55:19.698Z,3.97
2018-03-22T08:57:47.827Z,4.11
2018-03-22T09:00:15.929Z,4.22
2018-03-22T09:02:44.101Z,4.53
2018-03-22T09:05:12.261Z,4.70
2018-03-22T09:08:10.834Z,4.79
2018-03-22T09:11:16.768Z,4.91
2018-03-22T09:14:22.833Z,5.16
2018-03-22T09:17:28.905Z,5.27
2018-03-22T09:20:34.983Z,5.16
2018-03-22T09:23:41.023Z,4.69
2018-03-22T09:26:53.444Z,5.13
2018-03-22T09:29:59.560Z,5.26
2018-03-22T09:32:57.985Z,4.98
2018-03-22T09:35:27.827Z,5.40
2018-03-22T09:37:56.011Z,5.32
2018-03-22T09:40:24.143Z,5.19
2018-03-22T09:42:52.273Z,5.13
2018-03-22T09:45:20.394Z,4.97
2018-03-22T09:47:48.546Z,5.08
2018-03-22T09:50:16.724Z,5.08
2018-03-22T09:52:44.848Z,5.06
2018-03-22T09:55:13.000Z,5.00
2018-03-22T09:57:41.232Z,4.98
2018-03-22T10:00:09.347Z,5.44
2018-03-22T10:02:37.465Z,5.82
2018-03-22T10:05:05.629Z,5.86
2018-03-22T10:07:33.746Z,5.63
2018-03-22T10:10:01.880Z,5.58
2018-03-22T10:12:30.016Z,5.32
2018-03-22T10:14:58.164Z,5.57
2018-03-22T10:17:26.312Z,5.82
2018-03-22T10:19:54.419Z,5.76
2018-03-22T10:22:22.550Z,5.73
2018-03-22T10:24:50.667Z,5.72
2018-03-22T10:27:18.803Z,5.77
2018-03-22T10:29:46.953Z,6.09
2018-03-22T10:32:15.064Z,6.05
2018-03-22T10:34:43.191Z,6.20
2018-03-22T10:37:11.324Z,6.19
2018-03-22T10:39:39.463Z,6.00
2018-03-22T10:42:07.601Z,5.99
2018-03-22T10:44:35.736Z,6.03
2018-03-22T10:47:03.872Z,6.31
2018-03-22T10:49:31.997Z,6.73
2018-03-22T10:52:00.151Z,6.87
2018-03-22T10:54:28.321Z,6.53
2018-03-22T10:56:56.505Z,6.47
2018-03-22T10:59:24.771Z,6.84
2018-03-22T11:01:58.626Z,6.65
2018-03-22T11:04:26.764Z,6.95
2018-03-22T11:06:54.910Z,6.89
2018-03-22T11:09:23.029Z,6.83
2018-03-22T11:11:51.195Z,6.71
2018-03-22T11:14:19.313Z,6.66
2018-03-22T11:16:47.445Z,6.65
2018-03-22T11:19:15.592Z,6.90
2018-03-22T11:21:43.742Z,7.09
2018-03-22T11:24:11.880Z,7.28
2018-03-22T11:26:40.033Z,7.42
2018-03-22T11:29:08.208Z,7.64
2018-03-22T11:31:36.346Z,7.70
2018-03-22T11:34:04.479Z,7.68
2018-03-22T11:36:32.607Z,7.66
2018-03-22T11:39:00.804Z,7.80
2018-03-22T11:41:28.968Z,7.77
2018-03-22T11:43:57.079Z,7.64
2018-03-22T11:46:25.228Z,7.43
2018-03-22T11:48:53.376Z,7.63
2018-03-22T11:51:21.527Z,7.77
2018-03-22T11:53:49.708Z,7.80
2018-03-22T11:56:17.817Z,7.93
2018-03-22T11:58:45.958Z,7.86
2018-03-22T12:01:14.109Z,8.03
2018-03-22T12:03:42.238Z,8.03
2018-03-22T12:06:10.367Z,7.71
2018-03-22T12:08:38.495Z,7.77
2018-03-22T12:11:06.788Z,7.66
2018-03-22T12:13:34.880Z,7.60
2018-03-22T12:16:03.022Z,7.54
2018-03-22T12:18:31.180Z,7.50
2018-03-22T12:20:59.324Z,7.26
2018-03-22T12:23:27.469Z,7.19
2018-03-22T12:25:55.581Z,7.61
2018-03-22T12:28:23.711Z,7.81
2018-03-22T12:30:51.846Z,7.95
2018-03-22T12:33:20.002Z,7.97
2018-03-22T12:35:48.202Z,7.85
2018-03-22T12:38:16.342Z,7.95
2018-03-22T12:40:44.464Z,7.88
2018-03-22T12:43:12.651Z,7.51
2018-03-22T12:45:40.740Z,7.58
2018-03-22T12:48:08.885Z,7.68
2018-03-22T12:50:37.018Z,7.62
2018-03-22T12:53:05.191Z,7.65
2018-03-22T12:55:33.379Z,7.87
2018-03-22T12:58:01.535Z,7.88
2018-03-22T13:00:29.659Z,7.77
2018-03-22T13:02:59.315Z,7.73
2018-03-22T13:05:27.448Z,7.81
2018-03-22T13:07:55.590Z,8.11
2018-03-22T13:10:23.734Z,8.23
2018-03-22T13:12:51.858Z,8.42
2018-03-22T13:15:19.985Z,8.34
2018-03-22T13:17:48.113Z,8.25
2018-03-22T13:20:16.325Z,7.88
2018-03-22T13:22:44.394Z,7.78
2018-03-22T13:25:12.526Z,7.76
2018-03-22T13:27:40.684Z,7.80
2018-03-22T13:30:08.826Z,7.86
2018-03-22T13:32:37.008Z,7.80
2018-03-22T13:35:05.180Z,8.01
2018-03-22T13:37:33.444Z,8.12
2018-03-22T13:40:01.593Z,8.10
2018-03-22T13:42:29.747Z,8.05
2018-03-22T13:44:57.899Z,7.99
2018-03-22T13:47:26.079Z,7.92
2018-03-22T13:49:54.213Z,7.95
2018-03-22T13:52:22.645Z,7.97
2018-03-22T13:54:50.765Z,7.82
2018-03-22T13:57:18.885Z,7.75
2018-03-22T13:59:47.020Z,7.55
2018-03-22T14:02:15.133Z,7.66
2018-03-22T14:04:43.242Z,7.64
2018-03-22T14:07:11.399Z,7.58
2018-03-22T14:09:39.532Z,7.55
2018-03-22T14:12:07.658Z,7.69
2018-03-22T14:14:35.803Z,7.69
2018-03-22T14:17:03.947Z,7.56
2018-03-22T14:19:32.069Z,7.57
2018-03-22T14:22:00.230Z,7.50
2018-03-22T14:24:28.360Z,7.60
2018-03-22T14:26:56.485Z,7.57
2018-03-22T14:29:24.670Z,7.60
2018-03-22T14:31:52.792Z,7.51
2018-03-22T14:34:20.921Z,7.48
2018-03-22T14:36:49.121Z,7.53
2018-03-22T14:39:17.247Z,7.57
2018-03-22T14:41:45.391Z,7.64
2018-03-22T14:44:13.551Z,7.66
2018-03-22T14:46:41.660Z,7.68
2018-03-22T14:49:10.671Z,7.59
2018-03-22T14:51:38.984Z,7.48
2018-03-22T14:54:07.088Z,7.47
2018-03-22T14:56:37.659Z,7.47
2018-03-22T14:59:05.817Z,7.37
2018-03-22T15:01:33.982Z,7.23
2018-03-22T15:04:02.146Z,7.20
2018-03-22T15:06:30.337Z,7.03
2018-03-22T15:08:58.483Z,6.93
2018-03-22T15:11:26.634Z,6.82
2018-03-22T15:13:54.796Z,6.69
2018-03-22T15:16:22.930Z,6.50
2018-03-22T15:18:51.076Z,6.49
2018-03-22T15:21:19.382Z,6.25
2018-03-22T15:23:47.509Z,6.22
2018-03-22T15:26:15.671Z,6.21
2018-03-22T15:28:43.833Z,6.13
2018-03-22T15:31:11.986Z,6.08
2018-03-22T15:33:40.113Z,5.95
2018-03-22T15:36:08.267Z,5.97
2018-03-22T15:38:36.404Z,5.87
2018-03-22T15:41:04.571Z,5.85
2018-03-22T15:43:34.124Z,5.83
2018-03-22T15:46:02.280Z,5.87
2018-03-22T15:48:30.429Z,5.91
2018-03-22T15:50:58.965Z,5.91
2018-03-22T15:53:27.095Z,5.88
2018-03-22T15:55:55.229Z,5.88
2018-03-22T15:58:23.352Z,5.94
2018-03-22T16:00:51.484Z,5.90
2018-03-22T16:03:19.640Z,6.01
2018-03-22T16:05:47.791Z,6.06
2018-03-22T16:08:15.921Z,5.94
2018-03-22T16:10:44.044Z,5.81
2018-03-22T16:13:12.171Z,5.80
2018-03-22T16:15:40.323Z,5.73
2018-03-22T16:18:08.470Z,5.61
2018-03-22T16:20:36.619Z,5.57
2018-03-22T16:23:04.747Z,5.48
2018-03-22T16:25:32.870Z,5.46
2018-03-22T16:28:01.000Z,5.44
2018-03-22T16:30:29.224Z,5.35
2018-03-22T16:32:57.358Z,5.32
2018-03-22T16:35:25.519Z,5.22
2018-03-22T16:37:53.729Z,5.17
2018-03-22T16:40:21.867Z,5.12
2018-03-22T16:42:49.991Z,5.08
2018-03-22T16:45:18.141Z,5.00
2018-03-22T16:47:46.812Z,4.96
2018-03-22T16:50:14.950Z,4.88
2018-03-22T16:52:43.084Z,4.81
2018-03-22T16:55:11.213Z,4.73
2018-03-22T16:57:39.379Z,4.64
2018-03-22T17:00:07.526Z,4.57
2018-03-22T17:02:35.655Z,4.49
2018-03-22T17:05:03.846Z,4.43
2018-03-22T17:07:32.005Z,4.38
2018-03-22T17:10:00.203Z,4.32
2018-03-22T17:12:28.358Z,4.28
2018-03-22T17:14:56.480Z,4.24
2018-03-22T17:17:24.604Z,4.20
2018-03-22T17:19:52.753Z,4.13
2018-03-22T17:22:20.933Z,4.07
2018-03-22T17:24:49.005Z,4.02
2018-03-22T17:27:17.138Z,3.99
2018-03-22T17:29:45.270Z,3.97
2018-03-22T17:32:13.447Z,3.95
2018-03-22T17:34:41.583Z,3.92
2018-03-22T17:37:10.673Z,3.90
2018-03-22T17:39:38.804Z,3.87
2018-03-22T17:42:06.945Z,3.84
2018-03-22T17:44:35.095Z,3.83
2018-03-22T17:47:03.189Z,3.82
2018-03-22T17:49:31.315Z,3.80
2018-03-22T17:51:59.463Z,3.79
2018-03-22T17:54:27.567Z,3.77
2018-03-22T17:56:55.735Z,3.74
2018-03-22T17:59:23.879Z,3.72
2018-03-22T18:01:52.029Z,3.69
2018-03-22T18:04:20.186Z,3.66
2018-03-22T18:06:48.324Z,3.64
2018-03-22T18:09:16.464Z,3.64
2018-03-22T18:11:44.618Z,3.64
2018-03-22T18:14:12.743Z,3.63
2018-03-22T18:16:40.899Z,3.61
2018-03-22T18:19:09.046Z,3.59
2018-03-22T18:21:37.192Z,3.58
2018-03-22T18:24:05.297Z,3.56
2018-03-22T18:26:33.459Z,3.53
2018-03-22T18:29:01.605Z,3.53
2018-03-22T18:31:29.746Z,3.54
2018-03-22T18:33:57.914Z,3.57
2018-03-22T18:36:26.044Z,3.57
2018-03-22T18:38:54.202Z,3.58
2018-03-22T18:41:22.328Z,3.55
2018-03-22T18:43:50.483Z,3.53
2018-03-22T18:46:18.632Z,3.52
2018-03-22T18:48:46.773Z,3.52
2018-03-22T18:51:14.883Z,3.52
2018-03-22T18:53:43.020Z,3.54
2018-03-22T18:56:11.182Z,3.55
2018-03-22T18:58:39.327Z,3.57
2018-03-22T19:01:07.494Z,3.59
2018-03-22T19:03:35.600Z,3.67
2018-03-22T19:06:03.726Z,3.69
2018-03-22T19:08:31.867Z,3.68
2018-03-22T19:11:00.005Z,3.66
2018-03-22T19:13:28.151Z,3.65
2018-03-22T19:15:56.290Z,3.69
2018-03-22T19:18:24.421Z,3.76
2018-03-22T19:20:52.571Z,3.79
2018-03-22T19:23:20.724Z,3.79
2018-03-22T19:25:48.872Z,4.12
2018-03-22T19:28:17.008Z,4.41
2018-03-22T19:30:45.152Z,4.49
2018-03-22T19:33:13.350Z,4.45
2018-03-22T19:35:41.449Z,4.47
2018-03-22T19:38:09.585Z,4.31
2018-03-22T19:40:37.743Z,4.13
2018-03-22T19:43:05.991Z,4.00
2018-03-22T19:45:34.139Z,3.91
2018-03-22T19:48:02.256Z,3.86
2018-03-22T19:50:30.382Z,3.81
2018-03-22T19:52:58.549Z,3.76
2018-03-22T19:55:26.699Z,3.69
2018-03-22T19:57:54.912Z,3.57
2018-03-22T20:00:23.040Z,3.50
2018-03-22T20:02:51.185Z,3.46
2018-03-22T20:05:19.331Z,3.43
2018-03-22T20:07:47.487Z,3.44
2018-03-22T20:10:15.641Z,3.39
2018-03-22T20:12:44.321Z,3.36
2018-03-22T20:15:12.507Z,3.34
2018-03-22T20:17:40.653Z,3.34
2018-03-22T20:20:08.800Z,3.35
2018-03-22T20:22:36.926Z,3.32
2018-03-22T20:25:05.066Z,3.31
2018-03-22T20:27:33.208Z,3.29
2018-03-22T20:30:01.328Z,3.25
2018-03-22T20:32:29.481Z,3.24
2018-03-22T20:34:57.639Z,3.22
2018-03-22T20:37:25.796Z,3.22
2018-03-22T20:39:53.922Z,3.22
2018-03-22T20:42:22.051Z,3.25
2018-03-22T20:44:50.181Z,3.26
2018-03-22T20:47:18.395Z,3.35
2018-03-22T20:49:46.523Z,3.48
2018-03-22T20:52:14.660Z,3.58
2018-03-22T20:54:42.928Z,3.58
2018-03-22T20:57:11.033Z,3.54
2018-03-22T20:59:39.147Z,3.53
2018-03-22T21:02:07.307Z,3.56
2018-03-22T21:04:35.430Z,3.53
2018-03-22T21:07:03.577Z,3.58
2018-03-22T21:09:31.682Z,3.55
2018-03-22T21:11:59.844Z,3.52
2018-03-22T21:14:27.978Z,3.52
2018-03-22T21:16:56.539Z,3.60
2018-03-22T21:19:24.699Z,3.60
2018-03-22T21:21:52.815Z,3.61
2018-03-22T21:24:20.955Z,3.62
2018-03-22T21:26:49.095Z,3.67
2018-03-22T21:29:17.208Z,3.88
2018-03-22T21:31:45.355Z,3.90
2018-03-22T21:34:13.536Z,3.84
2018-03-22T21:36:41.686Z,3.80
2018-03-22T21:39:10.060Z,3.86
2018-03-22T21:44:40.463Z,3.85
2018-03-22T21:47:20.316Z,3.83
2018-03-22T21:49:48.495Z,3.85
2018-03-22T21:52:28.789Z,3.79
2018-03-22T21:54:56.940Z,3.79
2018-03-22T21:57:25.077Z,3.80
2018-03-22T21:59:53.256Z,3.76
2018-03-22T22:02:21.451Z,3.72
2018-03-22T22:04:49.578Z,3.75
2018-03-22T22:07:17.707Z,3.70
2018-03-22T22:09:45.859Z,3.66
2018-03-22T22:12:13.986Z,3.65
2018-03-22T22:14:42.139Z,3.69
2018-03-22T22:17:10.289Z,3.69
2018-03-22T22:19:38.415Z,3.71
2018-03-22T22:22:06.550Z,3.70
2018-03-22T22:24:34.830Z,3.69
2018-03-22T22:27:02.938Z,3.69
2018-03-22T22:29:31.065Z,3.69
2018-03-22T22:31:59.187Z,3.61
2018-03-22T22:34:27.331Z,3.60
2018-03-22T22:36:55.447Z,3.71
2018-03-22T22:39:23.614Z,3.51
2018-03-22T22:41:51.773Z,3.54
2018-03-22T22:44:19.947Z,3.46
2018-03-22T22:46:48.202Z,3.38
2018-03-22T22:49:16.346Z,3.31
2018-03-22T22:51:44.516Z,3.35
2018-03-22T22:54:12.640Z,3.37
2018-03-22T22:56:40.814Z,3.35
2018-03-22T22:59:08.887Z,3.38
2018-03-22T23:01:37.006Z,3.36
2018-03-22T23:04:05.159Z,3.31
2018-03-22T23:06:33.288Z,3.32
2018-03-22T23:09:01.466Z,3.22
2018-03-22T23:11:29.704Z,3.15
2018-03-22T23:13:57.820Z,3.15
2018-03-22T23:16:25.946Z,3.14
2018-03-22T23:18:54.084Z,3.14
2018-03-22T23:21:22.205Z,3.04
2018-03-22T23:23:50.331Z,2.90
2018-03-22T23:26:18.463Z,2.90
2018-03-22T23:28:46.617Z,2.92
2018-03-22T23:31:14.738Z,2.93
2018-03-22T23:33:43.335Z,2.85
2018-03-22T23:36:11.523Z,2.75
2018-03-22T23:38:40.642Z,2.71
2018-03-22T23:41:12.656Z,2.79
2018-03-22T23:43:40.783Z,2.63
2018-03-22T23:46:08.941Z,2.63
2018-03-22T23:48:37.974Z,2.63
2018-03-22T23:51:06.160Z,2.60
2018-03-22T23:53:34.302Z,2.49
2018-03-22T23:56:02.416Z,2.40
2018-03-22T23:58:30.556Z,2.41
